createdAt,value
2023-02-01T00:00:30.136Z,6.87
2023-02-01T00:01:30.107Z,6.79
2023-02-01T00:02:30.085Z,6.86
2023-02-01T00:03:30.036Z,6.91
2023-02-01T00:04:29.979Z,6.87
2023-02-01T00:05:29.918Z,6.89
2023-02-01T00:06:29.884Z,6.90
2023-02-01T00:07:29.839Z,6.90
2023-02-01T00:08:29.794Z,6.86
2023-02-01T00:09:29.751Z,7.00
2023-02-01T00:10:29.701Z,6.96
2023-02-01T00:11:29.662Z,6.96
2023-02-01T00:12:29.628Z,7.00
2023-02-01T00:13:29.579Z,6.89
2023-02-01T00:14:29.532Z,6.91
2023-02-01T00:15:29.483Z,6.93
2023-02-01T00:16:29.439Z,6.90
2023-02-01T00:17:29.395Z,6.93
2023-02-01T00:18:29.377Z,6.99
2023-02-01T00:19:29.309Z,6.91
2023-02-01T00:20:29.276Z,6.94
2023-02-01T00:21:29.222Z,6.99
2023-02-01T00:22:29.180Z,6.93
2023-02-01T00:23:29.133Z,6.90
2023-02-01T00:24:29.117Z,6.90
2023-02-01T00:25:29.049Z,6.97
2023-02-01T00:26:29.092Z,7.00
2023-02-01T00:27:28.962Z,6.99
2023-02-01T00:28:28.926Z,6.96
2023-02-01T00:29:28.883Z,6.93
2023-02-01T00:30:28.837Z,6.90
2023-02-01T00:31:29.676Z,6.86
2023-02-01T00:32:28.747Z,6.94
2023-02-01T00:33:28.700Z,7.01
2023-02-01T00:34:28.676Z,6.93
2023-02-01T00:35:28.616Z,6.94
2023-02-01T00:36:28.581Z,7.00
2023-02-01T00:37:28.526Z,6.96
2023-02-01T00:38:28.491Z,6.87
2023-02-01T00:39:28.443Z,6.83
2023-02-01T00:40:28.423Z,6.89
2023-02-01T00:41:28.353Z,6.82
2023-02-01T00:42:28.320Z,6.87
2023-02-01T00:43:28.270Z,6.93
2023-02-01T00:44:28.259Z,6.91
2023-02-01T00:45:28.189Z,6.89
2023-02-01T00:46:28.265Z,6.86
2023-02-01T00:47:28.096Z,6.79
2023-02-01T00:48:28.050Z,6.82
2023-02-01T00:49:28.014Z,6.89
2023-02-01T00:50:27.966Z,6.96
2023-02-01T00:51:27.933Z,6.91
2023-02-01T00:52:27.896Z,6.89
2023-02-01T00:53:27.834Z,6.89
2023-02-01T00:54:27.788Z,6.89
2023-02-01T00:55:27.749Z,6.99
2023-02-01T00:56:27.702Z,6.91
2023-02-01T00:57:27.659Z,6.90
2023-02-01T00:58:27.640Z,6.89
2023-02-01T00:59:27.572Z,6.90
2023-02-01T01:00:27.577Z,6.82
2023-02-01T01:01:27.495Z,6.83
2023-02-01T01:02:27.456Z,6.90
2023-02-01T01:03:27.401Z,6.90
2023-02-01T01:04:27.368Z,6.93
2023-02-01T01:05:27.309Z,6.81
2023-02-01T01:06:27.269Z,6.82
2023-02-01T01:07:27.225Z,6.79
2023-02-01T01:08:27.187Z,6.71
2023-02-01T01:09:27.142Z,6.73
2023-02-01T01:10:27.106Z,6.81
2023-02-01T01:11:27.049Z,6.73
2023-02-01T01:12:27.013Z,6.81
2023-02-01T01:13:26.970Z,6.81
2023-02-01T01:14:26.924Z,6.73
2023-02-01T01:15:26.881Z,6.68
2023-02-01T01:16:26.918Z,6.68
2023-02-01T01:17:26.789Z,6.75
2023-02-01T01:18:26.762Z,6.68
2023-02-01T01:19:26.701Z,6.71
2023-02-01T01:20:26.658Z,6.76
2023-02-01T01:21:26.663Z,6.73
2023-02-01T01:22:26.583Z,6.79
2023-02-01T01:23:26.526Z,6.69
2023-02-01T01:24:26.492Z,6.76
2023-02-01T01:25:26.440Z,6.76
2023-02-01T01:26:26.527Z,6.79
2023-02-01T01:27:26.352Z,6.65
2023-02-01T01:28:26.325Z,6.65
2023-02-01T01:29:26.265Z,6.60
2023-02-01T01:30:26.260Z,6.61
2023-02-01T01:31:26.280Z,6.63
2023-02-01T01:32:26.138Z,6.69
2023-02-01T01:33:26.093Z,6.61
2023-02-01T01:34:26.085Z,6.68
2023-02-01T01:35:26.006Z,6.71
2023-02-01T01:36:25.969Z,6.68
2023-02-01T01:37:25.919Z,6.73
2023-02-01T01:38:25.879Z,6.71
2023-02-01T01:39:25.834Z,6.58
2023-02-01T01:40:25.802Z,6.71
2023-02-01T01:41:25.756Z,6.69
2023-02-01T01:42:25.706Z,6.63
2023-02-01T01:43:25.656Z,6.68
2023-02-01T01:44:25.623Z,6.61
2023-02-01T01:45:25.577Z,6.65
2023-02-01T01:46:25.583Z,6.63
2023-02-01T01:47:25.495Z,6.60
2023-02-01T01:48:25.441Z,6.69
2023-02-01T01:49:25.401Z,6.55
2023-02-01T01:50:25.359Z,6.50
2023-02-01T01:51:25.339Z,6.55
2023-02-01T01:52:25.283Z,6.63
2023-02-01T01:53:25.231Z,6.58
2023-02-01T01:54:25.196Z,6.53
2023-02-01T01:55:25.143Z,6.61
2023-02-01T01:56:25.096Z,6.53
2023-02-01T01:57:25.056Z,6.53
2023-02-01T01:58:25.019Z,6.63
2023-02-01T01:59:24.992Z,6.58
2023-02-01T02:00:24.938Z,6.54
2023-02-01T02:01:24.872Z,6.55
2023-02-01T02:02:24.868Z,6.58
2023-02-01T02:03:24.801Z,6.64
2023-02-01T02:04:24.763Z,6.64
2023-02-01T02:05:24.711Z,6.60
2023-02-01T02:06:24.661Z,6.58
2023-02-01T02:07:24.609Z,6.64
2023-02-01T02:08:24.569Z,6.64
2023-02-01T02:09:24.531Z,6.57
2023-02-01T02:10:24.483Z,6.55
2023-02-01T02:11:24.448Z,6.61
2023-02-01T02:12:24.404Z,6.46
2023-02-01T02:13:24.345Z,6.42
2023-02-01T02:14:24.328Z,6.39
2023-02-01T02:15:24.259Z,6.46
2023-02-01T02:16:24.241Z,6.46
2023-02-01T02:17:24.187Z,6.45
2023-02-01T02:18:24.136Z,6.38
2023-02-01T02:19:24.086Z,6.46
2023-02-01T02:20:24.557Z,6.39
2023-02-01T02:21:23.996Z,6.28
2023-02-01T02:22:23.967Z,6.40
2023-02-01T02:23:23.928Z,6.38
2023-02-01T02:24:23.867Z,6.38
2023-02-01T02:25:23.822Z,6.39
2023-02-01T02:26:23.868Z,6.35
2023-02-01T02:27:23.736Z,6.40
2023-02-01T02:28:23.708Z,6.39
2023-02-01T02:29:23.656Z,6.48
2023-02-01T02:30:24.030Z,6.45
2023-02-01T02:31:23.589Z,6.45
2023-02-01T02:32:23.517Z,6.39
2023-02-01T02:33:23.470Z,6.36
2023-02-01T02:34:23.436Z,6.39
2023-02-01T02:35:23.401Z,6.30
2023-02-01T02:36:23.342Z,6.32
2023-02-01T02:37:23.297Z,6.30
2023-02-01T02:38:23.252Z,6.38
2023-02-01T02:39:23.212Z,6.33
2023-02-01T02:40:23.512Z,6.38
2023-02-01T02:41:23.126Z,6.35
2023-02-01T02:42:23.085Z,6.28
2023-02-01T02:43:23.063Z,6.38
2023-02-01T02:44:22.992Z,6.32
2023-02-01T02:45:22.951Z,6.36
2023-02-01T02:46:22.899Z,6.40
2023-02-01T02:47:22.861Z,6.39
2023-02-01T02:48:22.819Z,6.35
2023-02-01T02:49:22.782Z,6.39
2023-02-01T02:50:23.134Z,6.36
2023-02-01T02:51:22.680Z,6.32
2023-02-01T02:52:22.654Z,6.28
2023-02-01T02:53:22.597Z,6.32
2023-02-01T02:54:22.550Z,6.35
2023-02-01T02:55:22.520Z,6.21
2023-02-01T02:56:22.469Z,6.27
2023-02-01T02:57:22.418Z,6.16
2023-02-01T02:58:22.377Z,6.14
2023-02-01T02:59:22.335Z,6.13
2023-02-01T03:00:22.633Z,6.10
2023-02-01T03:01:22.304Z,6.05
2023-02-01T03:02:22.312Z,5.99
2023-02-01T03:03:22.173Z,6.03
2023-02-01T03:04:22.120Z,6.02
2023-02-01T03:05:22.122Z,5.92
2023-02-01T03:06:22.020Z,5.98
2023-02-01T03:07:21.991Z,6.08
2023-02-01T03:08:21.931Z,6.01
2023-02-01T03:09:21.889Z,5.92
2023-02-01T03:10:22.218Z,5.99
2023-02-01T03:11:21.803Z,6.10
2023-02-01T03:12:21.762Z,6.05
2023-02-01T03:13:21.717Z,6.03
2023-02-01T03:14:21.665Z,6.01
2023-02-01T03:15:21.623Z,6.10
2023-02-01T03:16:21.613Z,6.16
2023-02-01T03:17:21.537Z,6.16
2023-02-01T03:18:21.494Z,6.14
2023-02-01T03:19:21.470Z,6.21
2023-02-01T03:20:21.890Z,6.17
2023-02-01T03:21:21.358Z,6.14
2023-02-01T03:22:21.332Z,6.17
2023-02-01T03:23:21.271Z,6.16
2023-02-01T03:24:21.229Z,6.19
2023-02-01T03:25:21.180Z,6.17
2023-02-01T03:26:21.190Z,6.16
2023-02-01T03:27:21.094Z,6.30
2023-02-01T03:28:21.086Z,6.36
2023-02-01T03:29:21.004Z,6.27
2023-02-01T03:30:21.216Z,6.28
2023-02-01T03:31:20.938Z,6.28
2023-02-01T03:32:20.896Z,6.27
2023-02-01T03:33:20.835Z,6.28
2023-02-01T03:34:20.789Z,6.40
2023-02-01T03:35:20.739Z,6.35
2023-02-01T03:36:20.700Z,6.24
2023-02-01T03:37:41.644Z,6.30
2023-02-01T03:38:20.618Z,6.32
2023-02-01T03:39:20.563Z,6.35
2023-02-01T03:40:20.916Z,6.39
2023-02-01T03:41:20.480Z,6.42
2023-02-01T03:42:20.451Z,6.40
2023-02-01T03:43:20.388Z,6.43
2023-02-01T03:44:20.389Z,6.53
2023-02-01T03:45:20.305Z,6.53
2023-02-01T03:46:20.263Z,6.42
2023-02-01T03:47:20.247Z,6.54
2023-02-01T03:48:20.174Z,6.51
2023-02-01T03:49:20.126Z,6.55
2023-02-01T03:50:20.289Z,6.48
2023-02-01T03:51:20.039Z,6.57
2023-02-01T03:52:20.025Z,6.46
2023-02-01T03:53:19.947Z,6.64
2023-02-01T03:54:19.913Z,6.50
2023-02-01T03:55:19.865Z,6.57
2023-02-01T03:56:19.821Z,6.55
2023-02-01T03:57:19.774Z,6.58
2023-02-01T03:58:19.749Z,6.63
2023-02-01T03:59:19.685Z,6.58
2023-02-01T04:00:19.668Z,6.63
2023-02-01T04:01:19.603Z,6.60
2023-02-01T04:02:19.586Z,6.71
2023-02-01T04:03:19.509Z,6.55
2023-02-01T04:04:19.478Z,6.60
2023-02-01T04:05:19.419Z,6.61
2023-02-01T04:06:19.382Z,6.63
2023-02-01T04:07:19.357Z,6.68
2023-02-01T04:08:19.297Z,6.68
2023-02-01T04:09:19.261Z,6.65
2023-02-01T04:10:19.975Z,6.68
2023-02-01T04:11:19.167Z,6.72
2023-02-01T04:12:19.119Z,6.69
2023-02-01T04:13:19.072Z,6.76
2023-02-01T04:14:19.036Z,6.68
2023-02-01T04:15:18.995Z,6.69
2023-02-01T04:16:18.983Z,6.76
2023-02-01T04:17:18.898Z,6.76
2023-02-01T04:18:18.874Z,6.73
2023-02-01T04:19:18.809Z,6.79
2023-02-01T04:20:18.782Z,6.72
2023-02-01T04:21:18.724Z,6.81
2023-02-01T04:22:18.693Z,6.65
2023-02-01T04:23:18.634Z,6.64
2023-02-01T04:24:18.591Z,6.61
2023-02-01T04:25:18.568Z,6.55
2023-02-01T04:26:18.532Z,6.53
2023-02-01T04:27:18.460Z,6.61
2023-02-01T04:28:18.430Z,6.48
2023-02-01T04:29:18.374Z,6.57
2023-02-01T04:30:18.325Z,6.40
2023-02-01T04:31:18.410Z,6.54
2023-02-01T04:32:18.238Z,6.39
2023-02-01T04:33:18.197Z,6.40
2023-02-01T04:34:18.164Z,6.39
2023-02-01T04:35:18.115Z,6.36
2023-02-01T04:36:18.078Z,6.42
2023-02-01T04:37:18.031Z,6.36
2023-02-01T04:38:17.974Z,6.40
2023-02-01T04:39:17.936Z,6.42
2023-02-01T04:40:17.901Z,6.43
2023-02-01T04:41:17.848Z,6.39
2023-02-01T04:42:17.802Z,6.46
2023-02-01T04:43:17.761Z,6.42
2023-02-01T04:44:17.709Z,6.43
2023-02-01T04:45:17.671Z,6.32
2023-02-01T04:46:17.694Z,6.35
2023-02-01T04:47:17.581Z,6.25
2023-02-01T04:48:17.534Z,6.25
2023-02-01T04:49:17.494Z,6.20
2023-02-01T04:50:17.458Z,6.14
2023-02-01T04:51:17.405Z,6.16
2023-02-01T04:52:17.381Z,6.24
2023-02-01T04:53:17.316Z,6.10
2023-02-01T04:54:17.271Z,6.21
2023-02-01T04:55:17.227Z,6.24
2023-02-01T04:56:17.186Z,6.16
2023-02-01T04:57:17.147Z,6.16
2023-02-01T04:58:17.105Z,6.19
2023-02-01T04:59:17.052Z,6.11
2023-02-01T05:00:17.015Z,6.27
2023-02-01T05:01:17.000Z,6.30
2023-02-01T05:02:24.516Z,6.27
2023-02-01T05:03:16.869Z,6.27
2023-02-01T05:04:16.855Z,6.35
2023-02-01T05:05:16.781Z,6.39
2023-02-01T05:06:16.738Z,6.38
2023-02-01T05:07:16.702Z,6.36
2023-02-01T05:08:16.651Z,6.28
2023-02-01T05:09:16.614Z,6.38
2023-02-01T05:10:16.570Z,6.39
2023-02-01T05:11:16.519Z,6.38
2023-02-01T05:12:16.473Z,6.39
2023-02-01T05:13:16.428Z,6.33
2023-02-01T05:14:16.380Z,6.39
2023-02-01T05:15:16.339Z,6.46
2023-02-01T05:16:16.304Z,6.43
2023-02-01T05:17:16.250Z,6.39
2023-02-01T05:18:16.205Z,6.53
2023-02-01T05:19:16.163Z,6.46
2023-02-01T05:20:16.117Z,6.35
2023-02-01T05:21:16.080Z,6.42
2023-02-01T05:22:16.037Z,6.45
2023-02-01T05:23:15.987Z,6.38
2023-02-01T05:24:15.937Z,6.39
2023-02-01T05:25:15.902Z,6.35
2023-02-01T05:26:15.958Z,6.39
2023-02-01T05:27:15.809Z,6.28
2023-02-01T05:28:15.778Z,6.30
2023-02-01T05:29:15.723Z,6.33
2023-02-01T05:30:15.675Z,6.27
2023-02-01T05:31:15.752Z,6.16
2023-02-01T05:32:22.244Z,6.16
2023-02-01T05:33:15.556Z,6.16
2023-02-01T05:34:15.500Z,6.16
2023-02-01T05:35:15.455Z,6.16
2023-02-01T05:36:15.407Z,6.24
2023-02-01T05:37:15.388Z,6.38
2023-02-01T05:38:15.318Z,6.36
2023-02-01T05:39:15.291Z,6.35
2023-02-01T05:40:15.229Z,6.30
2023-02-01T05:41:15.189Z,6.43
2023-02-01T05:42:15.143Z,6.45
2023-02-01T05:43:15.109Z,6.48
2023-02-01T05:44:15.053Z,6.42
2023-02-01T05:45:15.025Z,6.39
2023-02-01T05:46:15.020Z,6.32
2023-02-01T05:47:14.938Z,6.39
2023-02-01T05:48:14.882Z,6.30
2023-02-01T05:49:14.838Z,6.33
2023-02-01T05:50:14.802Z,6.30
2023-02-01T05:51:14.747Z,6.11
2023-02-01T05:52:14.703Z,6.17
2023-02-01T05:53:14.671Z,6.17
2023-02-01T05:54:14.615Z,6.28
2023-02-01T05:55:14.575Z,6.25
2023-02-01T05:56:14.538Z,6.30
2023-02-01T05:57:14.490Z,6.27
2023-02-01T05:58:14.435Z,6.20
2023-02-01T05:59:14.427Z,6.27
2023-02-01T06:00:14.354Z,6.25
2023-02-01T06:01:14.307Z,6.32
2023-02-01T06:02:14.270Z,6.33
2023-02-01T06:03:14.221Z,6.25
2023-02-01T06:04:14.175Z,6.36
2023-02-01T06:05:14.152Z,6.30
2023-02-01T06:06:15.068Z,6.28
2023-02-01T06:07:14.061Z,6.32
2023-02-01T06:08:13.993Z,6.35
2023-02-01T06:09:13.951Z,6.35
2023-02-01T06:10:13.904Z,6.24
2023-02-01T06:11:30.615Z,6.35
2023-02-01T06:12:13.834Z,6.28
2023-02-01T06:13:13.787Z,6.24
2023-02-01T06:14:13.732Z,6.11
2023-02-01T06:15:13.706Z,6.19
2023-02-01T06:16:13.695Z,6.11
2023-02-01T06:17:13.618Z,6.11
2023-02-01T06:18:13.554Z,6.25
2023-02-01T06:19:13.528Z,6.20
2023-02-01T06:20:13.474Z,6.21
2023-02-01T06:21:13.423Z,6.20
2023-02-01T06:22:13.382Z,6.20
2023-02-01T06:23:13.351Z,6.21
2023-02-01T06:24:13.294Z,6.32
2023-02-01T06:25:13.260Z,6.33
2023-02-01T06:26:13.203Z,6.35
2023-02-01T06:27:13.159Z,6.42
2023-02-01T06:28:13.118Z,6.35
2023-02-01T06:29:13.074Z,6.42
2023-02-01T06:30:13.039Z,6.39
2023-02-01T06:31:13.210Z,6.45
2023-02-01T06:32:12.933Z,6.43
2023-02-01T06:33:12.908Z,6.33
2023-02-01T06:34:12.865Z,6.43
2023-02-01T06:35:12.805Z,6.38
2023-02-01T06:36:12.776Z,6.42
2023-02-01T06:37:12.727Z,6.40
2023-02-01T06:38:12.677Z,6.42
2023-02-01T06:39:12.628Z,6.42
2023-02-01T06:40:12.590Z,6.30
2023-02-01T06:41:12.548Z,6.46
2023-02-01T06:42:12.503Z,6.40
2023-02-01T06:43:12.453Z,6.43
2023-02-01T06:44:12.411Z,6.40
2023-02-01T06:45:12.365Z,6.39
2023-02-01T06:46:12.408Z,6.38
2023-02-01T06:47:12.284Z,6.48
2023-02-01T06:48:12.228Z,6.36
2023-02-01T06:49:12.192Z,6.50
2023-02-01T06:50:12.137Z,6.53
2023-02-01T06:51:12.101Z,6.45
2023-02-01T06:52:12.078Z,6.46
2023-02-01T06:53:12.028Z,6.46
2023-02-01T06:54:11.966Z,6.55
2023-02-01T06:55:11.933Z,6.45
2023-02-01T06:56:11.879Z,6.45
2023-02-01T06:57:11.835Z,6.50
2023-02-01T06:58:11.790Z,6.61
2023-02-01T06:59:11.752Z,6.48
2023-02-01T07:00:11.700Z,6.58
2023-02-01T07:01:11.733Z,6.43
2023-02-01T07:02:11.677Z,6.50
2023-02-01T07:03:11.572Z,6.55
2023-02-01T07:04:11.525Z,6.60
2023-02-01T07:05:11.485Z,6.63
2023-02-01T07:06:11.436Z,6.54
2023-02-01T07:07:11.417Z,6.60
2023-02-01T07:08:11.356Z,6.57
2023-02-01T07:09:11.307Z,6.58
2023-02-01T07:10:11.269Z,6.61
2023-02-01T07:11:11.225Z,6.61
2023-02-01T07:12:11.174Z,6.60
2023-02-01T07:13:11.142Z,6.53
2023-02-01T07:14:11.087Z,6.57
2023-02-01T07:15:11.047Z,6.69
2023-02-01T07:16:11.010Z,6.60
2023-02-01T07:17:10.955Z,6.63
2023-02-01T07:18:10.928Z,6.57
2023-02-01T07:19:10.889Z,6.61
2023-02-01T07:20:10.821Z,6.71
2023-02-01T07:21:10.783Z,6.61
2023-02-01T07:22:10.735Z,6.63
2023-02-01T07:23:10.699Z,6.63
2023-02-01T07:24:10.658Z,6.69
2023-02-01T07:25:10.606Z,6.68
2023-02-01T07:26:10.559Z,6.72
2023-02-01T07:27:10.522Z,6.71
2023-02-01T07:28:10.488Z,6.75
2023-02-01T07:29:10.445Z,6.75
2023-02-01T07:30:10.402Z,6.76
2023-02-01T07:31:10.378Z,6.78
2023-02-01T07:32:10.329Z,6.71
2023-02-01T07:33:10.258Z,6.71
2023-02-01T07:34:10.217Z,6.72
2023-02-01T07:35:10.166Z,6.73
2023-02-01T07:36:10.130Z,6.72
2023-02-01T07:37:10.079Z,6.81
2023-02-01T07:38:10.034Z,6.73
2023-02-01T07:39:09.996Z,6.75
2023-02-01T07:40:09.980Z,6.75
2023-02-01T07:41:09.920Z,6.81
2023-02-01T07:42:09.910Z,6.81
2023-02-01T07:43:09.822Z,6.83
2023-02-01T07:44:09.781Z,6.79
2023-02-01T07:45:20.910Z,6.87
2023-02-01T07:46:09.748Z,6.81
2023-02-01T07:47:09.666Z,6.79
2023-02-01T07:48:09.611Z,6.83
2023-02-01T07:49:09.556Z,6.89
2023-02-01T07:50:09.516Z,6.83
2023-02-01T07:51:09.482Z,6.82
2023-02-01T07:52:09.435Z,6.90
2023-02-01T07:53:09.387Z,6.89
2023-02-01T07:54:09.349Z,6.86
2023-02-01T07:55:09.296Z,6.89
2023-02-01T07:56:09.261Z,6.91
2023-02-01T07:57:09.212Z,6.90
2023-02-01T07:58:09.162Z,6.90
2023-02-01T07:59:09.127Z,6.86
2023-02-01T08:00:09.073Z,6.79
2023-02-01T08:01:09.083Z,6.83
2023-02-01T08:02:09.020Z,6.94
2023-02-01T08:03:08.963Z,6.91
2023-02-01T08:04:08.897Z,6.91
2023-02-01T08:05:08.869Z,6.89
2023-02-01T08:06:08.818Z,6.81
2023-02-01T08:07:08.771Z,6.89
2023-02-01T08:08:08.751Z,7.00
2023-02-01T08:09:08.727Z,6.99
2023-02-01T08:10:08.640Z,6.93
2023-02-01T08:11:08.601Z,6.93
2023-02-01T08:12:08.553Z,6.96
2023-02-01T08:13:08.518Z,6.89
2023-02-01T08:14:08.479Z,6.94
2023-02-01T08:15:08.423Z,6.96
2023-02-01T08:16:08.427Z,7.01
2023-02-01T08:17:08.339Z,7.04
2023-02-01T08:18:08.293Z,6.93
2023-02-01T08:19:08.296Z,7.07
2023-02-01T08:20:08.230Z,7.05
2023-02-01T08:21:08.166Z,7.05
2023-02-01T08:22:08.111Z,6.97
2023-02-01T08:23:08.078Z,7.00
2023-02-01T08:24:08.033Z,7.05
2023-02-01T08:25:07.988Z,7.05
2023-02-01T08:26:07.962Z,7.01
2023-02-01T08:27:07.900Z,7.04
2023-02-01T08:28:07.853Z,7.07
2023-02-01T08:29:07.824Z,7.05
2023-02-01T08:30:07.776Z,7.01
2023-02-01T08:31:07.759Z,7.08
2023-02-01T08:32:07.775Z,7.05
2023-02-01T08:33:07.646Z,7.00
2023-02-01T08:34:07.599Z,7.08
2023-02-01T08:35:07.552Z,7.12
2023-02-01T08:36:07.508Z,7.05
2023-02-01T08:37:07.469Z,7.11
2023-02-01T08:38:07.430Z,7.16
2023-02-01T08:39:07.380Z,7.07
2023-02-01T08:40:07.356Z,7.18
2023-02-01T08:41:07.291Z,7.07
2023-02-01T08:42:07.253Z,7.11
2023-02-01T08:43:07.212Z,7.08
2023-02-01T08:44:07.177Z,7.12
2023-02-01T08:45:07.129Z,7.04
2023-02-01T08:46:07.112Z,7.11
2023-02-01T08:47:07.034Z,7.15
2023-02-01T08:48:06.989Z,7.08
2023-02-01T08:49:06.955Z,7.12
2023-02-01T08:50:06.941Z,7.07
2023-02-01T08:51:06.855Z,7.09
2023-02-01T08:52:14.439Z,7.24
2023-02-01T08:53:06.768Z,7.09
2023-02-01T08:54:06.732Z,7.16
2023-02-01T08:55:06.702Z,7.09
2023-02-01T08:56:06.645Z,7.19
2023-02-01T08:57:06.596Z,7.30
2023-02-01T08:58:06.560Z,7.24
2023-02-01T08:59:06.515Z,7.26
2023-02-01T09:00:06.467Z,7.27
2023-02-01T09:01:06.444Z,7.12
2023-02-01T09:02:06.419Z,7.27
2023-02-01T09:03:06.337Z,7.21
2023-02-01T09:04:06.418Z,7.21
2023-02-01T09:05:06.252Z,7.34
2023-02-01T09:06:06.217Z,7.26
2023-02-01T09:07:06.172Z,7.27
2023-02-01T09:08:06.138Z,7.27
2023-02-01T09:09:06.086Z,7.27
2023-02-01T09:10:06.038Z,7.32
2023-02-01T09:11:06.014Z,7.33
2023-02-01T09:12:05.950Z,7.36
2023-02-01T09:13:05.912Z,7.32
2023-02-01T09:14:05.871Z,7.34
2023-02-01T09:15:05.848Z,7.34
2023-02-01T09:16:05.861Z,7.27
2023-02-01T09:17:05.745Z,7.26
2023-02-01T09:18:05.698Z,7.30
2023-02-01T09:19:25.045Z,7.32
2023-02-01T09:20:05.613Z,7.21
2023-02-01T09:21:05.578Z,7.27
2023-02-01T09:22:05.521Z,7.23
2023-02-01T09:23:05.492Z,7.27
2023-02-01T09:24:05.439Z,7.19
2023-02-01T09:25:05.443Z,7.29
2023-02-01T09:26:05.350Z,7.18
2023-02-01T09:27:05.346Z,7.18
2023-02-01T09:28:05.264Z,7.16
2023-02-01T09:29:05.433Z,7.19
2023-02-01T09:30:05.179Z,7.29
2023-02-01T09:31:05.259Z,7.30
2023-02-01T09:32:05.333Z,7.27
2023-02-01T09:33:05.052Z,7.32
2023-02-01T09:34:05.007Z,7.24
2023-02-01T09:35:04.988Z,7.27
2023-02-01T09:36:04.923Z,7.30
2023-02-01T09:37:04.883Z,7.33
2023-02-01T09:38:04.835Z,7.39
2023-02-01T09:39:04.792Z,7.39
2023-02-01T09:40:04.774Z,7.36
2023-02-01T09:41:04.723Z,7.47
2023-02-01T09:42:04.673Z,7.42
2023-02-01T09:43:04.619Z,7.47
2023-02-01T09:44:04.575Z,7.48
2023-02-01T09:45:04.532Z,7.44
2023-02-01T09:46:04.533Z,7.44
2023-02-01T09:47:04.452Z,7.45
2023-02-01T09:48:04.419Z,7.36
2023-02-01T09:49:04.359Z,7.44
2023-02-01T09:50:04.340Z,7.37
2023-02-01T09:51:04.276Z,7.41
2023-02-01T09:52:04.243Z,7.39
2023-02-01T09:53:04.201Z,7.27
2023-02-01T09:54:04.168Z,7.27
2023-02-01T09:55:04.101Z,7.44
2023-02-01T09:56:04.067Z,7.24
2023-02-01T09:57:04.015Z,7.30
2023-02-01T09:58:03.973Z,7.32
2023-02-01T09:59:03.947Z,7.34
2023-02-01T10:00:03.887Z,7.44
2023-02-01T10:01:03.951Z,7.39
2023-02-01T10:02:03.801Z,7.27
2023-02-01T10:03:03.753Z,7.45
2023-02-01T10:04:03.729Z,7.39
2023-02-01T10:05:03.682Z,7.33
2023-02-01T10:06:03.632Z,7.48
2023-02-01T10:07:03.587Z,7.30
2023-02-01T10:08:03.544Z,7.41
2023-02-01T10:09:03.505Z,7.36
2023-02-01T10:10:03.473Z,7.37
2023-02-01T10:11:04.094Z,7.37
2023-02-01T10:12:03.375Z,7.45
2023-02-01T10:13:03.331Z,7.37
2023-02-01T10:14:03.286Z,7.48
2023-02-01T10:15:03.248Z,7.47
2023-02-01T10:16:03.325Z,7.52
2023-02-01T10:17:03.175Z,7.50
2023-02-01T10:18:03.117Z,7.47
2023-02-01T10:19:03.068Z,7.51
2023-02-01T10:20:03.056Z,7.52
2023-02-01T10:21:02.995Z,7.51
2023-02-01T10:22:02.942Z,7.37
2023-02-01T10:23:23.207Z,7.41
2023-02-01T10:24:06.257Z,7.47
2023-02-01T10:25:02.812Z,7.42
2023-02-01T10:26:02.786Z,7.50
2023-02-01T10:27:02.736Z,7.52
2023-02-01T10:28:02.683Z,7.54
2023-02-01T10:29:02.642Z,7.51
2023-02-01T10:30:02.604Z,7.57
2023-02-01T10:31:02.670Z,7.57
2023-02-01T10:32:02.683Z,7.63
2023-02-01T10:33:02.467Z,7.62
2023-02-01T10:34:02.427Z,7.67
2023-02-01T10:35:02.392Z,7.60
2023-02-01T10:36:02.348Z,7.66
2023-02-01T10:37:02.316Z,7.57
2023-02-01T10:38:02.298Z,7.60
2023-02-01T10:39:02.223Z,7.51
2023-02-01T10:40:02.223Z,7.57
2023-02-01T10:41:02.130Z,7.60
2023-02-01T10:42:02.088Z,7.63
2023-02-01T10:43:02.048Z,7.67
2023-02-01T10:44:02.022Z,7.62
2023-02-01T10:45:01.967Z,7.70
2023-02-01T10:46:01.960Z,7.66
2023-02-01T10:47:01.877Z,7.73
2023-02-01T10:48:01.846Z,7.73
2023-02-01T10:49:01.800Z,7.67
2023-02-01T10:50:01.759Z,7.69
2023-02-01T10:51:01.719Z,7.74
2023-02-01T10:52:01.664Z,7.74
2023-02-01T10:53:01.614Z,7.73
2023-02-01T10:54:01.632Z,7.82
2023-02-01T10:55:01.557Z,7.81
2023-02-01T10:56:01.498Z,7.92
2023-02-01T10:57:01.590Z,7.96
2023-02-01T10:58:01.424Z,8.00
2023-02-01T10:59:01.370Z,8.06
2023-02-01T11:00:01.337Z,8.06
2023-02-01T11:01:01.277Z,8.00
2023-02-01T11:02:01.260Z,8.14
2023-02-01T11:03:10.649Z,8.04
2023-02-01T11:04:01.156Z,8.06
2023-02-01T11:05:01.116Z,8.20
2023-02-01T11:06:01.079Z,8.21
2023-02-01T11:07:01.023Z,8.14
2023-02-01T11:08:00.991Z,8.25
2023-02-01T11:09:00.943Z,8.20
2023-02-01T11:10:00.912Z,8.13
2023-02-01T11:11:00.868Z,8.17
2023-02-01T11:12:00.863Z,8.14
2023-02-01T11:13:00.771Z,8.02
2023-02-01T11:14:00.728Z,8.09
2023-02-01T11:15:00.693Z,8.09
2023-02-01T11:16:00.695Z,8.18
2023-02-01T11:17:00.598Z,8.18
2023-02-01T11:18:00.563Z,8.21
2023-02-01T11:19:00.514Z,8.13
2023-02-01T11:20:00.480Z,8.03
2023-02-01T11:21:00.436Z,8.10
2023-02-01T11:22:00.412Z,8.18
2023-02-01T11:23:00.344Z,8.09
2023-02-01T11:24:00.321Z,8.10
2023-02-01T11:25:00.266Z,8.13
2023-02-01T11:26:00.228Z,8.18
2023-02-01T11:27:00.173Z,8.17
2023-02-01T11:28:00.134Z,8.02
2023-02-01T11:29:00.093Z,8.12
2023-02-01T11:30:00.093Z,8.07
2023-02-01T11:31:00.191Z,8.07
2023-02-01T11:31:59.963Z,8.09
2023-02-01T11:32:59.937Z,8.22
2023-02-01T11:33:59.890Z,8.14
2023-02-01T11:34:59.844Z,8.22
2023-02-01T11:35:59.811Z,8.17
2023-02-01T11:36:59.750Z,8.17
2023-02-01T11:37:59.737Z,8.09
2023-02-01T11:38:59.687Z,8.09
2023-02-01T11:39:59.648Z,8.07
2023-02-01T11:40:59.591Z,8.13
2023-02-01T11:41:59.548Z,8.22
2023-02-01T11:42:59.504Z,8.20
2023-02-01T11:43:59.499Z,8.24
2023-02-01T11:44:59.418Z,8.22
2023-02-01T11:45:59.378Z,8.22
2023-02-01T11:46:59.336Z,8.27
2023-02-01T11:47:59.289Z,8.12
2023-02-01T11:48:59.240Z,8.14
2023-02-01T11:49:59.210Z,8.20
2023-02-01T11:50:59.158Z,8.14
2023-02-01T11:51:59.117Z,8.22
2023-02-01T11:52:59.173Z,8.18
2023-02-01T11:53:59.028Z,8.22
2023-02-01T11:54:58.987Z,8.22
2023-02-01T11:55:58.944Z,8.17
2023-02-01T11:56:58.902Z,8.28
2023-02-01T11:57:58.858Z,8.31
2023-02-01T11:58:58.826Z,8.28
2023-02-01T11:59:58.777Z,8.21
2023-02-01T12:00:58.730Z,8.24
2023-02-01T12:01:58.744Z,8.18
2023-02-01T12:02:58.686Z,8.25
2023-02-01T12:03:58.617Z,8.29
2023-02-01T12:04:58.592Z,8.29
2023-02-01T12:05:58.528Z,8.29
2023-02-01T12:06:58.510Z,8.29
2023-02-01T12:07:58.437Z,8.27
2023-02-01T12:08:58.394Z,8.36
2023-02-01T12:09:58.374Z,8.28
2023-02-01T12:10:58.313Z,8.27
2023-02-01T12:11:58.264Z,8.31
2023-02-01T12:12:58.222Z,8.28
2023-02-01T12:13:58.180Z,8.24
2023-02-01T12:14:58.138Z,8.25
2023-02-01T12:15:58.248Z,8.29
2023-02-01T12:16:58.062Z,8.25
2023-02-01T12:17:58.015Z,8.32
2023-02-01T12:18:57.964Z,8.32
2023-02-01T12:19:57.940Z,8.42
2023-02-01T12:20:57.928Z,8.34
2023-02-01T12:21:57.843Z,8.42
2023-02-01T12:22:57.836Z,8.37
2023-02-01T12:23:57.760Z,8.42
2023-02-01T12:24:57.706Z,8.32
2023-02-01T12:25:57.682Z,8.32
2023-02-01T12:26:57.642Z,8.34
2023-02-01T12:27:57.588Z,8.37
2023-02-01T12:28:57.554Z,8.34
2023-02-01T12:29:57.576Z,8.40
2023-02-01T12:30:57.466Z,8.34
2023-02-01T12:31:57.462Z,8.31
2023-02-01T12:32:57.376Z,8.29
2023-02-01T12:33:57.339Z,8.27
2023-02-01T12:34:57.290Z,8.28
2023-02-01T12:35:57.240Z,8.28
2023-02-01T12:36:57.198Z,8.21
2023-02-01T12:37:57.227Z,8.32
2023-02-01T12:38:57.117Z,8.27
2023-02-01T12:39:57.084Z,8.25
2023-02-01T12:40:57.029Z,8.27
2023-02-01T12:41:56.987Z,8.39
2023-02-01T12:42:56.943Z,8.22
2023-02-01T12:43:56.901Z,8.25
2023-02-01T12:44:56.857Z,8.21
2023-02-01T12:45:56.881Z,8.31
2023-02-01T12:46:56.773Z,8.34
2023-02-01T12:47:56.735Z,8.32
2023-02-01T12:48:56.685Z,8.32
2023-02-01T12:49:56.659Z,8.32
2023-02-01T12:50:56.603Z,8.21
2023-02-01T12:51:56.560Z,8.40
2023-02-01T12:52:56.540Z,8.22
2023-02-01T12:53:56.495Z,8.25
2023-02-01T12:54:56.460Z,8.37
2023-02-01T12:55:56.391Z,8.28
2023-02-01T12:56:56.351Z,8.28
2023-02-01T12:57:56.305Z,8.28
2023-02-01T12:58:56.264Z,8.31
2023-02-01T12:59:56.230Z,8.28
2023-02-01T13:00:56.207Z,8.28
2023-02-01T13:01:56.152Z,8.28
2023-02-01T13:02:56.090Z,8.27
2023-02-01T13:03:56.046Z,8.25
2023-02-01T13:04:56.008Z,8.36
2023-02-01T13:05:55.972Z,8.28
2023-02-01T13:06:55.929Z,8.37
2023-02-01T13:07:55.888Z,8.27
2023-02-01T13:08:55.839Z,8.24
2023-02-01T13:09:55.796Z,8.31
2023-02-01T13:10:55.762Z,8.20
2023-02-01T13:11:55.717Z,8.28
2023-02-01T13:12:55.674Z,8.34
2023-02-01T13:13:55.622Z,8.32
2023-02-01T13:14:55.584Z,8.49
2023-02-01T13:15:55.549Z,8.40
2023-02-01T13:16:55.520Z,8.36
2023-02-01T13:17:55.461Z,8.36